Cape Henlopen — WM5958 — position and weather

sailwx.info

Track history (hours):
 
Tides and Currents Weather Stations Pressure Air Temp Water Temp Dewpoint Dewpoint Depression Visibility Wind Speed Wind Dir Waves Ship Positions

Cape Henlopen

Owner: CROSS SOUND FERRY SERV INC, NEW LONDON, CT. More information available from US FCC via Universal Licensing System and Coast Guard Vessel Documentation Center.

Last reported at 2018-Feb-25 13:29 UTC. Time now 2018-Feb-25 14:00 UTC.
Position N 41°12' W 072°12'.

Length 94 m; draft 2.7 m.

Type: Passenger vessel. MMSI: 367354360.

Date/timePositionNaut miles runAvg speedWind from/ knotsBaromVisibWave heightAir tempDewpointWater temp
2018-Feb-25 13:29N 41°12' W 072°12'4 5.0
2018-Feb-25 12:46N 41°09' W 072°14'0 0.0
2018-Feb-25 12:24N 41°09' W 072°14'0 0.0
2018-Feb-25 02:41N 41°09' W 072°14'0 0.1
2018-Feb-25 02:30N 41°09' W 072°14'5 8.4
2018-Feb-25 01:55N 41°13' W 072°11'6 3.6
2018-Feb-25 00:08N 41°18' W 072°05'212.3
2018-Feb-24 23:59N 41°16' W 072°06'612.5
2018-Feb-24 23:30N 41°12' W 072°11'4 7.3
2018-Feb-24 23:00N 41°09' W 072°14'0 0.0
2018-Feb-24 22:30N 41°09' W 072°14'3 5.0
2018-Feb-24 22:00N 41°12' W 072°13'9 4.9
2018-Feb-24 20:11N 41°18' W 072°05'211.3
2018-Feb-24 19:58N 41°16' W 072°07'511.5
2018-Feb-24 19:30N 41°12' W 072°12'4 7.3
2018-Feb-24 19:00N 41°09' W 072°14'0 0.0
2018-Feb-24 18:30N 41°09' W 072°14'4 7.3
2018-Feb-24 17:57N 41°13' W 072°12'6 3.1
2018-Feb-24 16:00N 41°17' W 072°06'612.9
2018-Feb-24 15:30N 41°12' W 072°12'4 7.0
2018-Feb-24 15:00N 41°09' W 072°14'0 0.0
2018-Feb-24 14:30N 41°09' W 072°14'4 8.1
2018-Feb-24 13:59N 41°13' W 072°11'7 0.6
2018-Feb-24 02:05N 41°18' W 072°05'111.6
2018-Feb-24 01:58N 41°17' W 072°06'613.1
2018-Feb-24 01:30N 41°12' W 072°11'4 8.2
2018-Feb-24 01:00N 41°09' W 072°14'1 1.8
2018-Feb-24 00:24N 41°10' W 072°13'4 9.0
2018-Feb-23 23:57N 41°13' W 072°11'6 3.1
2018-Feb-23 22:05N 41°17' W 072°06'112.5
2018-Feb-23 21:59N 41°16' W 072°07'611.8
2018-Feb-23 21:31N 41°12' W 072°12'3 6.1
2018-Feb-23 20:57N 41°09' W 072°14'0 0.0
2018-Feb-23 20:23N 41°09' W 072°14'3 7.8
2018-Feb-23 20:00N 41°12' W 072°13'7 3.8
2018-Feb-23 18:05N 41°17' W 072°06'210.7
2018-Feb-23 17:55N 41°15' W 072°07'510.9
2018-Feb-23 17:29N 41°12' W 072°12'4 4.3
2018-Feb-23 16:40N 41°09' W 072°14'0 0.8
2018-Feb-23 16:22N 41°09' W 072°14'4 9.4
2018-Feb-23 15:59N 41°12' W 072°12'7 3.3
2018-Feb-23 13:59N 41°17' W 072°06'612.6
2018-Feb-23 13:30N 41°12' W 072°11'4 6.1
2018-Feb-23 12:50N 41°09' W 072°14'0 0.0
2018-Feb-23 12:30N 41°09' W 072°14'0 0.0
2018-Feb-23 12:00N 41°09' W 072°14'0 0.0
2018-Feb-23 02:29N 41°09' W 072°14'3 6.2
2018-Feb-23 02:00N 41°12' W 072°12'7 3.4
2018-Feb-22 23:59N 41°17' W 072°06'713.1
2018-Feb-22 23:29N 41°12' W 072°12'3 5.5
2018-Feb-22 22:51N 41°09' W 072°14'2 2.8
2018-Feb-22 22:13N 41°11' W 072°14'310.5
2018-Feb-22 21:54N 41°13' W 072°11'5 2.7
2018-Feb-22 20:06N 41°17' W 072°06'211.9
2018-Feb-22 19:57N 41°15' W 072°08'511.2
2018-Feb-22 19:30N 41°12' W 072°12'3 6.0
2018-Feb-22 18:59N 41°09' W 072°14'0 0.0
2018-Feb-22 18:30N 41°09' W 072°14'2 4.6
2018-Feb-22 18:00N 41°11' W 072°14'9 5.1
2018-Feb-22 16:12N 41°18' W 072°05'311.1
2018-Feb-22 15:53N 41°15' W 072°08'411.7
2018-Feb-22 15:30N 41°12' W 072°12'4 6.4
2018-Feb-22 14:57N 41°09' W 072°14'0 0.0
2018-Feb-22 14:30N 41°09' W 072°14'3 6.4
2018-Feb-22 14:00N 41°12' W 072°12'7 0.6
2018-Feb-22 02:00N 41°17' W 072°06'612.4
2018-Feb-22 01:30N 41°12' W 072°11'4 7.2
2018-Feb-22 00:59N 41°09' W 072°14'2 2.4
2018-Feb-22 00:15N 41°11' W 072°14'4 9.8
2018-Feb-21 23:50N 41°13' W 072°09'3 1.3
2018-Feb-21 21:47N 41°15' W 072°07'413.7
2018-Feb-21 21:29N 41°13' W 072°11'3 2.3
2018-Feb-21 20:15N 41°11' W 072°14'4 8.6
2018-Feb-21 19:50N 41°13' W 072°11'3 1.8
2018-Feb-21 17:56N 41°16' W 072°07'511.0
2018-Feb-21 17:30N 41°12' W 072°12'3 2.0
2018-Feb-21 16:13N 41°11' W 072°14'411.4
2018-Feb-21 15:53N 41°13' W 072°11'2 0.7
2018-Feb-21 13:41N 41°14' W 072°09'312.9
2018-Feb-21 13:29N 41°12' W 072°11'4 6.7
2018-Feb-21 12:56N 41°09' W 072°14'0 0.0
2018-Feb-21 12:28N 41°09' W 072°14'0 0.0
2018-Feb-21 02:41N 41°09' W 072°14'0 0.9
2018-Feb-21 02:27N 41°09' W 072°14'4 8.3
2018-Feb-21 01:59N 41°13' W 072°12'6 3.1
2018-Feb-20 23:56N 41°17' W 072°06'613.1
2018-Feb-20 23:30N 41°13' W 072°11'4 8.7
2018-Feb-20 23:00N 41°09' W 072°14'0 0.9
2018-Feb-20 22:29N 41°09' W 072°14'5 9.5
2018-Feb-20 21:59N 41°13' W 072°11'4 1.8
2018-Feb-20 19:53N 41°15' W 072°07'512.6
2018-Feb-20 19:28N 41°12' W 072°12'2 1.8
2018-Feb-20 18:09N 41°11' W 072°14'212.2
2018-Feb-20 17:59N 41°12' W 072°13'2 1.0
2018-Feb-20 15:39N 41°14' W 072°10'210.8
2018-Feb-20 15:30N 41°13' W 072°12'4 7.1
2018-Feb-20 14:57N 41°09' W 072°14'0 0.0
2018-Feb-20 14:30N 41°09' W 072°14'5 7.9
2018-Feb-20 13:54N 41°13' W 072°11'5 0.4
2018-Feb-20 01:59N 41°16' W 072°06'611.6
2018-Feb-20 01:30N 41°12' W 072°12'4 7.8
2018-Feb-20 01:01N 41°09' W 072°14'0 0.0
2018-Feb-20 00:30N 41°09' W 072°14'5 8.5
2018-Feb-19 23:53N 41°13' W 072°10'5 2.6
2018-Feb-19 21:58N 41°17' W 072°05'613.5
2018-Feb-19 21:30N 41°12' W 072°11'4 8.2
2018-Feb-19 21:01N 41°09' W 072°14'0 0.1
2018-Feb-19 20:30N 41°09' W 072°14'4 7.8
2018-Feb-19 20:00N 41°13' W 072°12'7 3.9
2018-Feb-19 18:06N 41°18' W 072°05'112.2
2018-Feb-19 17:59N 41°17' W 072°06'611.8
2018-Feb-19 17:29N 41°12' W 072°11'4 7.0
2018-Feb-19 16:55N 41°09' W 072°14'0 0.0
2018-Feb-19 16:28N 41°09' W 072°14'3 7.2
2018-Feb-19 16:00N 41°12' W 072°13'7 3.4
2018-Feb-19 14:01N 41°17' W 072°06'211.0
2018-Feb-19 13:52N 41°16' W 072°07'411.5
2018-Feb-19 13:29N 41°13' W 072°11'4 8.1
2018-Feb-19 13:00N 41°09' W 072°14'0 0.0
2018-Feb-19 12:30N 41°09' W 072°14'0 0.0
2018-Feb-19 02:26N 41°09' W 072°14'3 6.0
2018-Feb-19 01:59N 41°12' W 072°13'9 4.8
2018-Feb-19 00:09N 41°18' W 072°05'211.2
2018-Feb-19 00:00N 41°17' W 072°06'612.1
2018-Feb-18 23:30N 41°12' W 072°12'4 6.8
2018-Feb-18 22:58N 41°09' W 072°14'0 0.0
2018-Feb-18 22:30N 41°09' W 072°14'10 3.9
2018-Feb-18 19:58N 41°17' W 072°06'613.2
2018-Feb-18 19:30N 41°12' W 072°11'4 7.0
2018-Feb-18 18:56N 41°09' W 072°14'0 0.0
2018-Feb-18 18:25N 41°09' W 072°14'5 8.6
2018-Feb-18 17:51N 41°13' W 072°11'6 3.9
2018-Feb-18 16:12N 41°18' W 072°05'211.3
2018-Feb-18 16:00N 41°16' W 072°07'510.5
2018-Feb-18 15:30N 41°12' W 072°12'4 7.8
2018-Feb-18 15:00N 41°09' W 072°14'0 0.0
2018-Feb-18 14:29N 41°09' W 072°14'2 4.9
2018-Feb-18 14:00N 41°11' W 072°13'713.5
2018-Feb-18 13:30N 41°16' W 072°07'2 0.2
2018-Feb-18 02:11N 41°18' W 072°05'310.9
2018-Feb-18 01:54N 41°16' W 072°07'410.6
2018-Feb-18 01:30N 41°13' W 072°11'4 8.1
2018-Feb-18 01:00N 41°09' W 072°14'0 0.0
2018-Feb-18 00:30N 41°09' W 072°14'3 6.4
2018-Feb-18 00:00N 41°12' W 072°12'612.1
2018-Feb-17 23:30N 41°16' W 072°07'2 1.6
2018-Feb-17 22:05N 41°18' W 072°05'111.7
2018-Feb-17 22:00N 41°17' W 072°06'713.2
2018-Feb-17 21:30N 41°12' W 072°11'4 7.6
2018-Feb-17 21:00N 41°09' W 072°14'1 1.2
2018-Feb-17 20:25N 41°09' W 072°13'4 9.1
2018-Feb-17 19:59N 41°13' W 072°11'7 3.6
2018-Feb-17 18:05N 41°18' W 072°05'112.5
2018-Feb-17 18:00N 41°17' W 072°06'612.6
2018-Feb-17 17:30N 41°12' W 072°12'4 7.5
2018-Feb-17 16:59N 41°09' W 072°14'0 0.0
2018-Feb-17 16:30N 41°09' W 072°14'3 6.5
2018-Feb-17 16:00N 41°12' W 072°13'6 2.9
2018-Feb-17 13:58N 41°16' W 072°07'510.6
2018-Feb-17 13:30N 41°13' W 072°11'4 7.9
2018-Feb-17 13:00N 41°09' W 072°14'0 0.0
2018-Feb-17 12:30N 41°09' W 072°14'0 0.0
2018-Feb-17 12:00N 41°09' W 072°14'0 0.0
2018-Feb-17 02:39N 41°09' W 072°14'0 0.0
2018-Feb-17 02:30N 41°09' W 072°14'4 7.7
2018-Feb-17 02:00N 41°13' W 072°12'8 4.2
2018-Feb-17 00:13N 41°18' W 072°05'210.5
2018-Feb-16 23:59N 41°16' W 072°06'511.1
2018-Feb-16 23:30N 41°12' W 072°11'4 6.7
2018-Feb-16 22:58N 41°09' W 072°14'0 0.0
2018-Feb-16 22:30N 41°09' W 072°14'3 6.8
2018-Feb-16 22:00N 41°12' W 072°12'7 3.2
2018-Feb-16 19:58N 41°16' W 072°05'613.6
2018-Feb-16 19:30N 41°12' W 072°11'4 7.3
2018-Feb-16 19:00N 41°09' W 072°14'1 1.7
2018-Feb-16 18:22N 41°10' W 072°13'4 9.2
2018-Feb-16 17:55N 41°13' W 072°11'5 2.6
2018-Feb-16 15:58N 41°16' W 072°06'611.6
2018-Feb-16 15:29N 41°13' W 072°11'4 6.4
2018-Feb-16 14:49N 41°09' W 072°14'0 0.0
2018-Feb-16 14:30N 41°09' W 072°14'3 5.4
2018-Feb-16 14:00N 41°12' W 072°13'  
Track history (hours):
 
Tides and Currents Weather Stations Pressure Air Temp Water Temp Dewpoint Dewpoint Depression Visibility Wind Speed Wind Dir Waves Ship Positions

Cape Henlopen

Owner: CROSS SOUND FERRY SERV INC, NEW LONDON, CT. More information available from US FCC via Universal Licensing System and Coast Guard Vessel Documentation Center.

Last reported at 2018-Feb-25 13:29 UTC. Time now 2018-Feb-25 14:00 UTC.
Position N 41°12' W 072°12'.

Length 94 m; draft 2.7 m.

Type: Passenger vessel. MMSI: 367354360.

Date/timePositionNaut miles runAvg speedWind from/ knotsBaromVisibWave heightAir tempDewpointWater temp
2018-Feb-25 13:29N 41°12' W 072°12'4 5.0
2018-Feb-25 12:46N 41°09' W 072°14'0 0.0
2018-Feb-25 12:24N 41°09' W 072°14'0 0.0
2018-Feb-25 02:41N 41°09' W 072°14'0 0.1
2018-Feb-25 02:30N 41°09' W 072°14'5 8.4
2018-Feb-25 01:55N 41°13' W 072°11'6 3.6
2018-Feb-25 00:08N 41°18' W 072°05'212.3
2018-Feb-24 23:59N 41°16' W 072°06'612.5
2018-Feb-24 23:30N 41°12' W 072°11'4 7.3
2018-Feb-24 23:00N 41°09' W 072°14'0 0.0
2018-Feb-24 22:30N 41°09' W 072°14'3 5.0
2018-Feb-24 22:00N 41°12' W 072°13'9 4.9
2018-Feb-24 20:11N 41°18' W 072°05'211.3
2018-Feb-24 19:58N 41°16' W 072°07'511.5
2018-Feb-24 19:30N 41°12' W 072°12'4 7.3
2018-Feb-24 19:00N 41°09' W 072°14'0 0.0
2018-Feb-24 18:30N 41°09' W 072°14'4 7.3
2018-Feb-24 17:57N 41°13' W 072°12'6 3.1
2018-Feb-24 16:00N 41°17' W 072°06'612.9
2018-Feb-24 15:30N 41°12' W 072°12'4 7.0
2018-Feb-24 15:00N 41°09' W 072°14'0 0.0
2018-Feb-24 14:30N 41°09' W 072°14'4 8.1
2018-Feb-24 13:59N 41°13' W 072°11'7 0.6
2018-Feb-24 02:05N 41°18' W 072°05'111.6
2018-Feb-24 01:58N 41°17' W 072°06'613.1
2018-Feb-24 01:30N 41°12' W 072°11'4 8.2
2018-Feb-24 01:00N 41°09' W 072°14'1 1.8
2018-Feb-24 00:24N 41°10' W 072°13'4 9.0
2018-Feb-23 23:57N 41°13' W 072°11'6 3.1
2018-Feb-23 22:05N 41°17' W 072°06'112.5
2018-Feb-23 21:59N 41°16' W 072°07'611.8
2018-Feb-23 21:31N 41°12' W 072°12'3 6.1
2018-Feb-23 20:57N 41°09' W 072°14'0 0.0
2018-Feb-23 20:23N 41°09' W 072°14'3 7.8
2018-Feb-23 20:00N 41°12' W 072°13'7 3.8
2018-Feb-23 18:05N 41°17' W 072°06'210.7
2018-Feb-23 17:55N 41°15' W 072°07'510.9
2018-Feb-23 17:29N 41°12' W 072°12'4 4.3
2018-Feb-23 16:40N 41°09' W 072°14'0 0.8
2018-Feb-23 16:22N 41°09' W 072°14'4 9.4
2018-Feb-23 15:59N 41°12' W 072°12'7 3.3
2018-Feb-23 13:59N 41°17' W 072°06'612.6
2018-Feb-23 13:30N 41°12' W 072°11'4 6.1
2018-Feb-23 12:50N 41°09' W 072°14'0 0.0
2018-Feb-23 12:30N 41°09' W 072°14'0 0.0
2018-Feb-23 12:00N 41°09' W 072°14'0 0.0
2018-Feb-23 02:29N 41°09' W 072°14'3 6.2
2018-Feb-23 02:00N 41°12' W 072°12'7 3.4
2018-Feb-22 23:59N 41°17' W 072°06'713.1
2018-Feb-22 23:29N 41°12' W 072°12'3 5.5
2018-Feb-22 22:51N 41°09' W 072°14'2 2.8
2018-Feb-22 22:13N 41°11' W 072°14'310.5
2018-Feb-22 21:54N 41°13' W 072°11'5 2.7
2018-Feb-22 20:06N 41°17' W 072°06'211.9
2018-Feb-22 19:57N 41°15' W 072°08'511.2
2018-Feb-22 19:30N 41°12' W 072°12'3 6.0
2018-Feb-22 18:59N 41°09' W 072°14'0 0.0
2018-Feb-22 18:30N 41°09' W 072°14'2 4.6
2018-Feb-22 18:00N 41°11' W 072°14'9 5.1
2018-Feb-22 16:12N 41°18' W 072°05'311.1
2018-Feb-22 15:53N 41°15' W 072°08'411.7
2018-Feb-22 15:30N 41°12' W 072°12'4 6.4
2018-Feb-22 14:57N 41°09' W 072°14'0 0.0
2018-Feb-22 14:30N 41°09' W 072°14'3 6.4
2018-Feb-22 14:00N 41°12' W 072°12'7 0.6
2018-Feb-22 02:00N 41°17' W 072°06'612.4
2018-Feb-22 01:30N 41°12' W 072°11'4 7.2
2018-Feb-22 00:59N 41°09' W 072°14'2 2.4
2018-Feb-22 00:15N 41°11' W 072°14'4 9.8
2018-Feb-21 23:50N 41°13' W 072°09'3 1.3
2018-Feb-21 21:47N 41°15' W 072°07'413.7
2018-Feb-21 21:29N 41°13' W 072°11'3 2.3
2018-Feb-21 20:15N 41°11' W 072°14'4 8.6
2018-Feb-21 19:50N 41°13' W 072°11'3 1.8
2018-Feb-21 17:56N 41°16' W 072°07'511.0
2018-Feb-21 17:30N 41°12' W 072°12'3 2.0
2018-Feb-21 16:13N 41°11' W 072°14'411.4
2018-Feb-21 15:53N 41°13' W 072°11'2 0.7
2018-Feb-21 13:41N 41°14' W 072°09'312.9
2018-Feb-21 13:29N 41°12' W 072°11'4 6.7
2018-Feb-21 12:56N 41°09' W 072°14'0 0.0
2018-Feb-21 12:28N 41°09' W 072°14'0 0.0
2018-Feb-21 02:41N 41°09' W 072°14'0 0.9
2018-Feb-21 02:27N 41°09' W 072°14'4 8.3
2018-Feb-21 01:59N 41°13' W 072°12'6 3.1
2018-Feb-20 23:56N 41°17' W 072°06'613.1
2018-Feb-20 23:30N 41°13' W 072°11'4 8.7
2018-Feb-20 23:00N 41°09' W 072°14'0 0.9
2018-Feb-20 22:29N 41°09' W 072°14'5 9.5
2018-Feb-20 21:59N 41°13' W 072°11'4 1.8
2018-Feb-20 19:53N 41°15' W 072°07'512.6
2018-Feb-20 19:28N 41°12' W 072°12'2 1.8
2018-Feb-20 18:09N 41°11' W 072°14'212.2
2018-Feb-20 17:59N 41°12' W 072°13'2 1.0
2018-Feb-20 15:39N 41°14' W 072°10'210.8
2018-Feb-20 15:30N 41°13' W 072°12'4 7.1
2018-Feb-20 14:57N 41°09' W 072°14'0 0.0
2018-Feb-20 14:30N 41°09' W 072°14'5 7.9
2018-Feb-20 13:54N 41°13' W 072°11'5 0.4
2018-Feb-20 01:59N 41°16' W 072°06'611.6
2018-Feb-20 01:30N 41°12' W 072°12'4 7.8
2018-Feb-20 01:01N 41°09' W 072°14'0 0.0
2018-Feb-20 00:30N 41°09' W 072°14'5 8.5
2018-Feb-19 23:53N 41°13' W 072°10'5 2.6
2018-Feb-19 21:58N 41°17' W 072°05'613.5
2018-Feb-19 21:30N 41°12' W 072°11'4 8.2
2018-Feb-19 21:01N 41°09' W 072°14'0 0.1
2018-Feb-19 20:30N 41°09' W 072°14'4 7.8
2018-Feb-19 20:00N 41°13' W 072°12'7 3.9
2018-Feb-19 18:06N 41°18' W 072°05'112.2
2018-Feb-19 17:59N 41°17' W 072°06'611.8
2018-Feb-19 17:29N 41°12' W 072°11'4 7.0
2018-Feb-19 16:55N 41°09' W 072°14'0 0.0
2018-Feb-19 16:28N 41°09' W 072°14'3 7.2
2018-Feb-19 16:00N 41°12' W 072°13'7 3.4
2018-Feb-19 14:01N 41°17' W 072°06'211.0
2018-Feb-19 13:52N 41°16' W 072°07'411.5
2018-Feb-19 13:29N 41°13' W 072°11'4 8.1
2018-Feb-19 13:00N 41°09' W 072°14'0 0.0
2018-Feb-19 12:30N 41°09' W 072°14'0 0.0
2018-Feb-19 02:26N 41°09' W 072°14'3 6.0
2018-Feb-19 01:59N 41°12' W 072°13'9 4.8
2018-Feb-19 00:09N 41°18' W 072°05'211.2
2018-Feb-19 00:00N 41°17' W 072°06'612.1
2018-Feb-18 23:30N 41°12' W 072°12'4 6.8
2018-Feb-18 22:58N 41°09' W 072°14'0 0.0
2018-Feb-18 22:30N 41°09' W 072°14'10 3.9
2018-Feb-18 19:58N 41°17' W 072°06'613.2
2018-Feb-18 19:30N 41°12' W 072°11'4 7.0
2018-Feb-18 18:56N 41°09' W 072°14'0 0.0
2018-Feb-18 18:25N 41°09' W 072°14'5 8.6
2018-Feb-18 17:51N 41°13' W 072°11'6 3.9
2018-Feb-18 16:12N 41°18' W 072°05'211.3
2018-Feb-18 16:00N 41°16' W 072°07'510.5
2018-Feb-18 15:30N 41°12' W 072°12'4 7.8
2018-Feb-18 15:00N 41°09' W 072°14'0 0.0
2018-Feb-18 14:29N 41°09' W 072°14'2 4.9
2018-Feb-18 14:00N 41°11' W 072°13'713.5
2018-Feb-18 13:30N 41°16' W 072°07'2 0.2
2018-Feb-18 02:11N 41°18' W 072°05'310.9
2018-Feb-18 01:54N 41°16' W 072°07'410.6
2018-Feb-18 01:30N 41°13' W 072°11'4 8.1
2018-Feb-18 01:00N 41°09' W 072°14'0 0.0
2018-Feb-18 00:30N 41°09' W 072°14'3 6.4
2018-Feb-18 00:00N 41°12' W 072°12'612.1
2018-Feb-17 23:30N 41°16' W 072°07'2 1.6
2018-Feb-17 22:05N 41°18' W 072°05'111.7
2018-Feb-17 22:00N 41°17' W 072°06'713.2
2018-Feb-17 21:30N 41°12' W 072°11'4 7.6
2018-Feb-17 21:00N 41°09' W 072°14'1 1.2
2018-Feb-17 20:25N 41°09' W 072°13'4 9.1
2018-Feb-17 19:59N 41°13' W 072°11'7 3.6
2018-Feb-17 18:05N 41°18' W 072°05'112.5
2018-Feb-17 18:00N 41°17' W 072°06'612.6
2018-Feb-17 17:30N 41°12' W 072°12'4 7.5
2018-Feb-17 16:59N 41°09' W 072°14'0 0.0
2018-Feb-17 16:30N 41°09' W 072°14'3 6.5
2018-Feb-17 16:00N 41°12' W 072°13'6 2.9
2018-Feb-17 13:58N 41°16' W 072°07'510.6
2018-Feb-17 13:30N 41°13' W 072°11'4 7.9
2018-Feb-17 13:00N 41°09' W 072°14'0 0.0
2018-Feb-17 12:30N 41°09' W 072°14'0 0.0
2018-Feb-17 12:00N 41°09' W 072°14'0 0.0
2018-Feb-17 02:39N 41°09' W 072°14'0 0.0
2018-Feb-17 02:30N 41°09' W 072°14'4 7.7
2018-Feb-17 02:00N 41°13' W 072°12'8 4.2
2018-Feb-17 00:13N 41°18' W 072°05'210.5
2018-Feb-16 23:59N 41°16' W 072°06'511.1
2018-Feb-16 23:30N 41°12' W 072°11'4 6.7
2018-Feb-16 22:58N 41°09' W 072°14'0 0.0
2018-Feb-16 22:30N 41°09' W 072°14'3 6.8
2018-Feb-16 22:00N 41°12' W 072°12'7 3.2
2018-Feb-16 19:58N 41°16' W 072°05'613.6
2018-Feb-16 19:30N 41°12' W 072°11'4 7.3
2018-Feb-16 19:00N 41°09' W 072°14'1 1.7
2018-Feb-16 18:22N 41°10' W 072°13'4 9.2
2018-Feb-16 17:55N 41°13' W 072°11'5 2.6
2018-Feb-16 15:58N 41°16' W 072°06'611.6
2018-Feb-16 15:29N 41°13' W 072°11'4 6.4
2018-Feb-16 14:49N 41°09' W 072°14'0 0.0
2018-Feb-16 14:30N 41°09' W 072°14'3 5.4
2018-Feb-16 14:00N 41°12' W 072°13'  

Dump ship's entire track history